createdAt,value
2024-03-26T07:55:49.273Z,74.19
2024-03-26T07:56:41.475Z,73.13
2024-03-26T07:57:41.494Z,71.01
2024-03-26T07:58:41.434Z,70.26
2024-03-26T07:59:41.421Z,68.66
2024-03-26T08:01:41.426Z,65.57
2024-03-26T08:02:41.393Z,65.54
2024-03-26T08:03:41.393Z,64.90
2024-03-26T08:04:42.867Z,65.10
2024-03-26T08:06:41.356Z,65.48
2024-03-26T08:07:41.334Z,64.73
2024-03-26T08:08:44.325Z,64.02
2024-03-26T08:09:41.321Z,64.32
2024-03-26T08:11:41.333Z,63.75
2024-03-26T08:12:41.369Z,64.02
2024-03-26T08:13:41.309Z,63.92
2024-03-26T08:14:41.278Z,63.99
2024-03-26T08:15:41.354Z,64.40
2024-03-26T08:16:41.250Z,63.24
2024-03-26T08:17:41.227Z,63.53
2024-03-26T08:18:41.220Z,62.71
2024-03-26T08:19:41.240Z,61.79
2024-03-26T08:21:41.177Z,61.97
2024-03-26T08:22:41.222Z,61.66
2024-03-26T08:23:44.169Z,61.22
2024-03-26T08:24:41.170Z,61.53
2024-03-26T08:25:41.154Z,61.81
2024-03-26T08:26:41.170Z,60.59
2024-03-26T08:27:41.160Z,60.36
2024-03-26T08:29:41.106Z,60.13
2024-03-26T08:30:41.091Z,59.59
2024-03-26T08:31:41.081Z,58.24
2024-03-26T08:32:41.113Z,57.43
2024-03-26T08:33:41.098Z,57.84
2024-03-26T08:34:41.046Z,57.93
2024-03-26T08:35:41.098Z,58.34
2024-03-26T08:36:41.036Z,58.24
2024-03-26T08:37:41.035Z,57.93
2024-03-26T08:38:44.068Z,57.56
2024-03-26T08:39:41.012Z,58.40
2024-03-26T08:40:41.004Z,59.31
2024-03-26T08:41:41.005Z,60.20
2024-03-26T08:42:40.983Z,59.28
2024-03-26T08:43:40.974Z,58.47
2024-03-26T08:44:40.944Z,59.18
2024-03-26T08:45:40.943Z,58.65
2024-03-26T08:46:40.932Z,58.65
2024-03-26T08:47:40.915Z,57.33
2024-03-26T08:48:40.911Z,58.24
2024-03-26T08:49:40.916Z,57.71
2024-03-26T08:50:40.894Z,58.69
2024-03-26T08:51:40.865Z,57.37
2024-03-26T08:52:40.863Z,56.49
2024-03-26T08:53:43.850Z,56.90
2024-03-26T08:54:40.849Z,57.71
2024-03-26T08:55:40.845Z,56.99
2024-03-26T08:56:40.815Z,56.49
2024-03-26T08:57:40.821Z,55.98
2024-03-26T08:59:40.803Z,56.70
2024-03-26T09:00:40.776Z,56.79
2024-03-26T09:02:40.770Z,58.82
2024-03-26T09:03:40.749Z,56.39
2024-03-26T09:04:40.731Z,56.39
2024-03-26T09:05:48.338Z,56.72
2024-03-26T09:06:40.724Z,56.82
2024-03-26T09:07:40.711Z,57.73
2024-03-26T09:08:43.706Z,57.43
2024-03-26T09:09:40.719Z,57.76
2024-03-26T09:10:40.743Z,58.67
2024-03-26T09:11:40.664Z,59.08
2024-03-26T09:12:40.683Z,58.75
2024-03-26T09:13:40.645Z,58.04
2024-03-26T09:14:40.682Z,56.99
2024-03-26T09:15:40.640Z,57.81
2024-03-26T09:17:40.606Z,56.46
2024-03-26T09:19:40.581Z,55.55
2024-03-26T09:20:40.564Z,56.59
2024-03-26T09:21:40.550Z,57.10
2024-03-26T09:22:40.571Z,57.07
2024-03-26T09:23:43.578Z,57.07
2024-03-26T09:24:49.436Z,57.98
2024-03-26T09:25:40.524Z,57.68
2024-03-26T09:26:40.511Z,57.17
2024-03-26T09:27:40.504Z,55.35
2024-03-26T09:29:40.486Z,53.04
2024-03-26T09:30:40.475Z,55.55
2024-03-26T09:31:40.460Z,55.65
2024-03-26T09:32:40.616Z,55.98
2024-03-26T09:33:40.423Z,52.84
2024-03-26T09:34:40.426Z,53.67
2024-03-26T09:35:40.423Z,57.43
2024-03-26T09:36:41.278Z,56.82
2024-03-26T09:37:40.405Z,55.20
2024-03-26T09:38:48.195Z,54.39
2024-03-26T09:39:40.365Z,54.90
2024-03-26T09:40:40.352Z,51.37
2024-03-26T09:41:40.351Z,52.56
2024-03-26T09:42:40.353Z,50.56
2024-03-26T09:43:40.347Z,50.93
2024-03-26T09:44:40.324Z,51.54
2024-03-26T09:45:41.307Z,52.28
2024-03-26T09:46:40.306Z,54.21
2024-03-26T09:47:40.288Z,55.76
2024-03-26T09:48:40.270Z,56.47
2024-03-26T09:50:40.252Z,56.42
2024-03-26T09:52:40.229Z,57.54
2024-03-26T09:53:43.223Z,57.95
2024-03-26T09:55:40.216Z,57.67
2024-03-26T09:56:40.176Z,57.06
2024-03-26T09:58:40.157Z,58.17
2024-03-26T09:59:40.170Z,59.19
2024-03-26T10:00:41.615Z,58.99
2024-03-26T10:02:40.119Z,60.21
2024-03-26T10:03:40.109Z,60.44
2024-03-26T10:05:40.109Z,61.36
2024-03-26T10:06:40.079Z,61.56
2024-03-26T10:08:43.163Z,61.76
2024-03-26T10:09:40.044Z,62.37
2024-03-26T10:10:47.543Z,61.97
2024-03-26T10:11:42.735Z,61.99
2024-03-26T10:12:40.017Z,62.51
2024-03-26T10:13:40.024Z,62.92
2024-03-26T10:15:39.983Z,62.10
2024-03-26T10:16:40.143Z,62.61
2024-03-26T10:17:39.999Z,62.51
2024-03-26T10:18:39.972Z,62.92
2024-03-26T10:20:39.933Z,62.84
2024-03-26T10:21:39.916Z,62.13
2024-03-26T10:22:39.916Z,62.63
2024-03-26T10:23:42.897Z,62.54
2024-03-26T10:24:39.888Z,62.33
2024-03-26T10:25:39.874Z,62.84
2024-03-26T10:26:39.863Z,62.54
2024-03-26T10:27:39.869Z,62.43
2024-03-26T10:28:39.851Z,62.33
2024-03-26T10:29:39.830Z,62.43
2024-03-26T10:31:39.828Z,62.63
2024-03-26T10:32:39.799Z,62.84
2024-03-26T10:33:39.794Z,62.05
2024-03-26T10:34:39.770Z,61.75
2024-03-26T10:35:39.766Z,62.16
2024-03-26T10:36:39.760Z,62.02
2024-03-26T10:37:39.744Z,62.13
2024-03-26T10:38:47.938Z,62.02
2024-03-26T10:40:39.726Z,61.52
2024-03-26T10:41:39.709Z,61.41
2024-03-26T10:42:39.863Z,61.72
2024-03-26T10:43:39.683Z,61.61
2024-03-26T10:44:39.669Z,61.52
2024-03-26T10:45:49.355Z,61.61
2024-03-26T10:46:40.653Z,62.13
2024-03-26T10:47:39.712Z,60.80
2024-03-26T10:48:44.415Z,60.80
2024-03-26T10:49:40.617Z,61.21
2024-03-26T10:50:39.611Z,61.82
2024-03-26T10:51:39.618Z,61.82
2024-03-26T10:52:39.580Z,62.23
2024-03-26T10:53:42.742Z,61.31
2024-03-26T10:54:39.568Z,60.50
2024-03-26T10:56:39.542Z,61.72
2024-03-26T10:57:39.531Z,61.31
2024-03-26T10:58:39.524Z,62.13
2024-03-26T10:59:39.522Z,62.23
2024-03-26T11:01:39.492Z,62.84
2024-03-26T11:02:39.516Z,61.61
2024-03-26T11:03:39.507Z,60.91
2024-03-26T11:04:39.489Z,60.57
2024-03-26T11:06:39.465Z,61.66
2024-03-26T11:07:39.436Z,61.56
2024-03-26T11:08:42.413Z,61.02
2024-03-26T11:09:39.412Z,61.43
2024-03-26T11:11:39.392Z,58.86
2024-03-26T11:12:39.373Z,58.53
2024-03-26T11:14:39.370Z,58.17
2024-03-26T11:15:39.516Z,56.72
2024-03-26T11:16:39.338Z,55.58
2024-03-26T11:17:39.346Z,55.45
2024-03-26T11:19:39.298Z,55.22
2024-03-26T11:20:39.301Z,53.58
2024-03-26T11:21:39.277Z,53.75
2024-03-26T11:22:39.272Z,54.36
2024-03-26T11:23:42.252Z,53.25
2024-03-26T11:24:39.250Z,51.30
2024-03-26T11:25:39.245Z,51.20
2024-03-26T11:26:39.243Z,52.28
2024-03-26T11:27:39.213Z,51.55
2024-03-26T11:28:39.219Z,51.68
2024-03-26T11:29:39.196Z,50.37
2024-03-26T11:30:39.184Z,50.87
2024-03-26T11:31:39.185Z,50.18
2024-03-26T11:32:39.158Z,50.06
2024-03-26T11:33:39.170Z,50.99
2024-03-26T11:34:39.155Z,50.18
2024-03-26T11:35:39.133Z,48.67
2024-03-26T11:36:39.128Z,49.30
2024-03-26T11:37:39.122Z,49.38
2024-03-26T11:38:42.104Z,48.67
2024-03-26T11:39:39.095Z,49.98
2024-03-26T11:40:39.080Z,49.38
2024-03-26T11:41:39.076Z,48.67
2024-03-26T11:42:39.074Z,48.77
2024-03-26T11:43:39.051Z,48.06
2024-03-26T11:44:39.035Z,48.36
2024-03-26T11:45:39.029Z,48.67
2024-03-26T11:47:39.009Z,51.57
2024-03-26T11:48:39.168Z,50.14
2024-03-26T11:49:38.995Z,50.64
2024-03-26T11:50:38.971Z,49.10
2024-03-26T11:52:38.950Z,49.01
2024-03-26T11:53:42.130Z,49.10
2024-03-26T11:55:38.924Z,49.30
2024-03-26T11:56:38.920Z,48.30
2024-03-26T11:57:41.361Z,48.98
2024-03-26T11:58:38.888Z,48.88
2024-03-26T11:59:38.870Z,48.68
2024-03-26T12:00:38.975Z,48.98
2024-03-26T12:02:38.843Z,48.88
2024-03-26T12:03:38.840Z,49.87
2024-03-26T12:04:38.868Z,49.46
2024-03-26T12:05:38.808Z,49.94
2024-03-26T12:06:38.794Z,50.15
2024-03-26T12:07:38.801Z,49.82
2024-03-26T12:08:41.787Z,49.04
2024-03-26T12:10:38.758Z,48.22
2024-03-26T12:11:38.759Z,48.63
2024-03-26T12:12:38.733Z,48.91
2024-03-26T12:13:38.736Z,48.30
2024-03-26T12:14:38.712Z,47.70
2024-03-26T12:15:38.717Z,47.19
2024-03-26T12:17:38.681Z,47.58
2024-03-26T12:18:38.688Z,48.08
2024-03-26T12:19:38.669Z,48.38
2024-03-26T12:20:38.685Z,46.87
2024-03-26T12:21:38.641Z,46.87
2024-03-26T12:22:38.629Z,47.09
2024-03-26T12:25:38.604Z,45.58
2024-03-26T12:26:38.607Z,46.17
2024-03-26T12:27:38.576Z,46.75
2024-03-26T12:28:38.568Z,47.43
2024-03-26T12:29:38.557Z,47.53
2024-03-26T12:30:38.548Z,45.72
2024-03-26T12:32:38.522Z,44.81
2024-03-26T12:33:38.515Z,45.70
2024-03-26T12:35:38.510Z,46.91
2024-03-26T12:36:38.477Z,43.59
2024-03-26T12:37:38.491Z,41.67
2024-03-26T12:38:41.453Z,43.28
2024-03-26T12:39:38.456Z,41.47
2024-03-26T12:40:38.436Z,43.08
2024-03-26T12:42:38.414Z,43.28
2024-03-26T12:43:38.417Z,41.87
2024-03-26T12:44:38.399Z,43.28
2024-03-26T12:45:38.385Z,43.16
2024-03-26T12:46:38.374Z,43.87
2024-03-26T12:47:38.362Z,42.13
2024-03-26T12:48:38.454Z,43.62
2024-03-26T12:50:38.336Z,43.82
2024-03-26T12:51:38.316Z,41.21
2024-03-26T12:52:38.320Z,43.32
2024-03-26T12:53:41.491Z,43.42
2024-03-26T12:54:38.296Z,42.40
2024-03-26T12:55:38.291Z,42.90
2024-03-26T12:56:38.272Z,43.22
2024-03-26T12:58:38.251Z,40.33
2024-03-26T12:59:38.242Z,40.75
2024-03-26T13:00:38.232Z,40.66
2024-03-26T13:01:38.233Z,42.78
2024-03-26T13:02:38.205Z,41.77
2024-03-26T13:03:38.256Z,40.77
2024-03-26T13:04:38.200Z,41.27
2024-03-26T13:05:38.182Z,40.95
2024-03-26T13:06:38.166Z,39.23
2024-03-26T13:07:38.150Z,39.03
2024-03-26T13:08:41.147Z,39.14
2024-03-26T13:09:38.141Z,39.64
2024-03-26T13:10:38.119Z,40.02
2024-03-26T13:11:38.294Z,39.82
2024-03-26T13:13:38.088Z,39.80
2024-03-26T13:14:38.106Z,38.09
2024-03-26T13:15:38.117Z,39.00
2024-03-26T13:16:38.058Z,38.60
2024-03-26T13:17:38.056Z,39.78
2024-03-26T13:18:38.122Z,39.38
2024-03-26T13:19:38.027Z,40.06
2024-03-26T13:21:38.002Z,39.66
2024-03-26T13:22:38.955Z,38.78
2024-03-26T13:23:40.986Z,38.07
2024-03-26T13:24:39.657Z,38.68
2024-03-26T13:25:39.341Z,41.89
2024-03-26T13:26:37.954Z,40.17
2024-03-26T13:27:37.958Z,37.15
2024-03-26T13:28:37.927Z,37.67
2024-03-26T13:29:37.941Z,39.58
2024-03-26T13:31:37.904Z,37.98
2024-03-26T13:33:37.887Z,38.76
2024-03-26T13:34:37.887Z,37.05
2024-03-26T13:35:37.871Z,35.66
2024-03-26T13:36:37.853Z,36.07
2024-03-26T13:37:37.854Z,36.67
2024-03-26T13:38:43.104Z,37.55
2024-03-26T13:39:37.831Z,35.35
2024-03-26T13:41:38.804Z,36.57
2024-03-26T13:43:37.792Z,37.85
2024-03-26T13:44:37.760Z,36.45
2024-03-26T13:45:37.760Z,36.93
2024-03-26T13:46:37.763Z,37.04
2024-03-26T13:47:37.731Z,37.94
2024-03-26T13:48:37.717Z,37.54
2024-03-26T13:49:37.719Z,36.83
2024-03-26T13:51:37.703Z,36.05
2024-03-26T13:53:40.694Z,34.92
2024-03-26T13:54:37.732Z,35.73
2024-03-26T13:55:37.674Z,35.73
2024-03-26T13:56:40.143Z,37.74
2024-03-26T13:57:37.617Z,36.03
2024-03-26T13:58:37.613Z,36.43
2024-03-26T13:59:37.593Z,37.44
2024-03-26T14:00:37.778Z,36.72
2024-03-26T14:01:37.578Z,37.12
2024-03-26T14:02:37.564Z,36.03
2024-03-26T14:03:37.566Z,37.04
2024-03-26T14:04:37.545Z,37.74
2024-03-26T14:05:38.499Z,37.13
2024-03-26T14:06:37.519Z,35.53
2024-03-26T14:07:37.509Z,35.55
2024-03-26T14:08:40.513Z,35.44
2024-03-26T14:09:37.498Z,34.44
2024-03-26T14:11:38.076Z,36.36
2024-03-26T14:12:38.409Z,35.77
2024-03-26T14:14:37.428Z,36.57
2024-03-26T14:15:37.432Z,36.67
2024-03-26T14:16:37.412Z,35.78
2024-03-26T14:17:37.400Z,37.08
2024-03-26T14:19:37.395Z,37.79
2024-03-26T14:20:37.380Z,37.59
2024-03-26T14:21:37.356Z,36.49
2024-03-26T14:22:37.364Z,37.59
2024-03-26T14:23:40.337Z,37.79
2024-03-26T14:24:37.330Z,37.37
2024-03-26T14:25:37.315Z,37.07
2024-03-26T14:26:37.305Z,37.87
2024-03-26T14:27:37.302Z,37.96
2024-03-26T14:28:37.282Z,36.55
2024-03-26T14:29:37.285Z,36.54
2024-03-26T14:30:37.284Z,36.35
2024-03-26T14:31:37.260Z,36.35
2024-03-26T14:32:37.248Z,38.06
2024-03-26T14:33:37.249Z,37.65
2024-03-26T14:34:37.252Z,36.85
2024-03-26T14:35:37.218Z,35.64
2024-03-26T14:36:37.193Z,36.65
2024-03-26T14:37:37.225Z,36.73
2024-03-26T14:40:37.159Z,37.84
2024-03-26T14:42:37.140Z,36.21
2024-03-26T14:43:37.138Z,37.02
2024-03-26T14:44:37.111Z,36.41
2024-03-26T14:45:37.099Z,35.21
2024-03-26T14:46:37.122Z,35.01
2024-03-26T14:47:37.086Z,35.83
2024-03-26T14:48:37.064Z,36.33
2024-03-26T14:49:37.099Z,36.54
2024-03-26T14:50:37.056Z,36.92
2024-03-26T14:51:37.986Z,36.03
2024-03-26T14:52:37.032Z,36.54
2024-03-26T14:53:40.077Z,37.04
2024-03-26T14:54:37.035Z,36.55
2024-03-26T14:55:37.643Z,37.46
2024-03-26T14:56:36.997Z,36.05
2024-03-26T14:57:36.999Z,36.95
2024-03-26T14:58:36.962Z,36.45
2024-03-26T14:59:36.969Z,36.75
2024-03-26T15:00:36.978Z,37.54
2024-03-26T15:02:36.923Z,36.52
2024-03-26T15:03:37.889Z,36.13
2024-03-26T15:05:36.903Z,36.63
2024-03-26T15:06:36.893Z,37.04
2024-03-26T15:07:36.893Z,36.45
2024-03-26T15:08:39.859Z,36.47
2024-03-26T15:09:36.860Z,37.07
2024-03-26T15:10:36.828Z,36.57
2024-03-26T15:11:37.024Z,37.37
2024-03-26T15:12:36.825Z,38.18
2024-03-26T15:13:36.804Z,39.38
2024-03-26T15:15:36.824Z,37.65
2024-03-26T15:16:36.774Z,36.95
2024-03-26T15:17:36.771Z,37.05
2024-03-26T15:18:36.756Z,37.07
2024-03-26T15:19:36.836Z,37.15
2024-03-26T15:20:36.760Z,37.26
2024-03-26T15:21:36.729Z,36.45
2024-03-26T15:22:36.761Z,38.36
2024-03-26T15:23:40.659Z,37.55
2024-03-26T15:24:36.715Z,38.14
2024-03-26T15:25:36.670Z,38.24
2024-03-26T15:26:36.666Z,36.23
2024-03-26T15:27:36.657Z,36.25
2024-03-26T15:28:36.990Z,37.65
2024-03-26T15:29:36.648Z,37.35
2024-03-26T15:30:36.640Z,37.85
2024-03-26T15:31:36.652Z,38.94
2024-03-26T15:32:50.657Z,37.74
2024-03-26T15:33:36.594Z,37.52
2024-03-26T15:34:37.544Z,37.72
2024-03-26T15:35:36.573Z,37.22
2024-03-26T15:36:36.557Z,36.73
2024-03-26T15:37:36.551Z,36.43
2024-03-26T15:38:39.567Z,36.43
2024-03-26T15:39:36.544Z,36.23
2024-03-26T15:40:36.522Z,36.23
2024-03-26T15:41:36.504Z,35.44
2024-03-26T15:42:36.498Z,37.46
2024-03-26T15:43:36.477Z,37.05
2024-03-26T15:44:36.483Z,35.35
2024-03-26T15:45:36.460Z,36.25
2024-03-26T15:46:44.629Z,35.95
2024-03-26T15:47:37.441Z,36.55
2024-03-26T15:48:36.434Z,36.05
2024-03-26T15:49:36.450Z,35.46
2024-03-26T15:50:36.412Z,36.07
2024-03-26T15:52:37.310Z,37.07
2024-03-26T15:53:39.447Z,36.29
2024-03-26T15:54:36.370Z,35.98
2024-03-26T15:55:36.362Z,35.90
2024-03-26T15:56:36.350Z,36.60
2024-03-26T15:57:36.341Z,37.30
2024-03-26T15:58:36.351Z,36.80
2024-03-26T15:59:36.335Z,37.30
2024-03-26T16:00:36.348Z,38.01
2024-03-26T16:01:36.290Z,37.79
2024-03-26T16:02:36.280Z,36.18
2024-03-26T16:03:36.301Z,36.60
2024-03-26T16:04:36.268Z,37.01
2024-03-26T16:05:36.247Z,37.01
2024-03-26T16:06:36.239Z,37.21
2024-03-26T16:07:36.239Z,37.02
2024-03-26T16:08:39.230Z,37.32
2024-03-26T16:10:52.992Z,38.64
2024-03-26T16:11:37.186Z,37.83
2024-03-26T16:13:36.161Z,37.63
2024-03-26T16:14:36.152Z,38.13
2024-03-26T16:16:36.124Z,38.42
2024-03-26T16:17:36.116Z,38.01
2024-03-26T16:18:36.106Z,38.92
2024-03-26T16:19:36.364Z,38.42
2024-03-26T16:20:36.095Z,38.81
2024-03-26T16:21:36.081Z,38.01
2024-03-26T16:22:36.060Z,37.51
2024-03-26T16:23:39.048Z,38.21
2024-03-26T16:24:36.054Z,37.59
2024-03-26T16:26:36.022Z,34.26
2024-03-26T16:28:36.003Z,32.48
2024-03-26T16:29:36.004Z,33.21
2024-03-26T16:30:36.001Z,33.94
2024-03-26T16:31:35.980Z,34.69
2024-03-26T16:32:35.976Z,36.52
2024-03-26T16:33:35.936Z,36.85
2024-03-26T16:34:35.948Z,38.38
2024-03-26T16:36:35.920Z,38.20
2024-03-26T16:37:35.899Z,38.90
2024-03-26T16:38:38.883Z,38.81
2024-03-26T16:39:35.903Z,38.43
2024-03-26T16:41:39.322Z,40.04
2024-03-26T16:42:35.849Z,39.65
2024-03-26T16:43:36.428Z,40.56
2024-03-26T16:44:36.851Z,41.17
2024-03-26T16:45:35.813Z,40.26
2024-03-26T16:46:36.980Z,39.48
2024-03-26T16:48:35.784Z,39.79
2024-03-26T16:49:35.774Z,39.70
2024-03-26T16:51:35.757Z,40.62
2024-03-26T16:52:35.906Z,41.05
2024-03-26T16:53:38.774Z,41.14
2024-03-26T16:54:35.722Z,40.64
2024-03-26T16:56:35.695Z,41.06
2024-03-26T16:57:35.692Z,40.86
2024-03-26T16:58:35.686Z,41.67
2024-03-26T16:59:35.675Z,41.18
2024-03-26T17:01:35.652Z,41.69
2024-03-26T17:02:35.637Z,41.99
2024-03-26T17:03:35.652Z,42.01
2024-03-26T17:04:35.612Z,42.82
2024-03-26T17:05:35.624Z,43.55
2024-03-26T17:06:35.604Z,42.54
2024-03-26T17:07:35.578Z,46.70
2024-03-26T17:08:38.601Z,44.17
2024-03-26T17:09:35.569Z,43.97
2024-03-26T17:11:38.290Z,46.62
2024-03-26T17:13:35.518Z,51.48
2024-03-26T17:14:35.506Z,52.28
2024-03-26T17:16:54.968Z,53.32
2024-03-26T17:17:36.489Z,53.45
2024-03-26T17:18:35.475Z,54.16
2024-03-26T17:19:37.365Z,53.98
2024-03-26T17:20:35.447Z,53.58
2024-03-26T17:21:35.431Z,54.99
2024-03-26T17:22:35.430Z,56.13
2024-03-26T17:23:38.402Z,57.07
2024-03-26T17:24:35.403Z,57.37
2024-03-26T17:26:35.394Z,57.81
2024-03-26T17:28:35.353Z,59.05
2024-03-26T17:29:35.343Z,59.26
2024-03-26T17:30:35.370Z,59.86
2024-03-26T17:31:35.325Z,60.40
2024-03-26T17:32:35.320Z,60.30
2024-03-26T17:33:35.306Z,59.59
2024-03-26T17:34:35.289Z,58.88
2024-03-26T17:35:35.289Z,59.08
2024-03-26T17:36:35.282Z,58.47
2024-03-26T17:37:35.264Z,60.22
2024-03-26T17:38:38.248Z,61.44
2024-03-26T17:39:35.261Z,61.07
2024-03-26T17:41:35.223Z,61.51
2024-03-26T17:42:35.215Z,61.63
2024-03-26T17:44:35.227Z,64.58
2024-03-26T17:45:35.219Z,65.12
2024-03-26T17:46:35.213Z,65.33
2024-03-26T17:47:35.155Z,65.63
2024-03-26T17:49:35.140Z,65.05
2024-03-26T17:51:35.122Z,65.86
2024-03-26T17:52:35.099Z,66.61
2024-03-26T17:53:38.098Z,67.12
2024-03-26T17:54:35.080Z,67.52
2024-03-26T17:55:35.066Z,67.66
2024-03-26T17:57:35.242Z,67.08
2024-03-26T17:58:35.036Z,67.79
2024-03-26T17:59:35.030Z,67.79
2024-03-26T18:00:35.031Z,68.13
2024-03-26T18:02:35.009Z,68.54
2024-03-26T18:04:34.986Z,68.33
2024-03-26T18:05:34.969Z,68.10
2024-03-26T18:06:34.951Z,68.33
2024-03-26T18:07:34.946Z,68.23
2024-03-26T18:08:37.961Z,68.54
2024-03-26T18:09:34.924Z,69.05
2024-03-26T18:10:34.926Z,68.95
2024-03-26T18:12:34.887Z,69.18
2024-03-26T18:13:34.889Z,69.38
2024-03-26T18:14:34.923Z,68.88
2024-03-26T18:15:34.865Z,68.88
2024-03-26T18:16:34.845Z,68.98
2024-03-26T18:17:34.905Z,70.34
2024-03-26T18:18:34.899Z,70.44
2024-03-26T18:19:34.946Z,70.75
2024-03-26T18:20:34.854Z,70.17
2024-03-26T18:21:34.854Z,70.57
2024-03-26T18:22:34.848Z,70.57
2024-03-26T18:23:37.821Z,68.33
2024-03-26T18:24:34.817Z,68.23
2024-03-26T18:25:34.809Z,69.45
2024-03-26T18:26:34.795Z,66.28
2024-03-26T18:27:34.780Z,67.82
2024-03-26T18:28:34.790Z,67.92
2024-03-26T18:29:34.753Z,68.02
2024-03-26T18:30:34.767Z,68.33
2024-03-26T18:31:34.746Z,68.84
2024-03-26T18:32:34.741Z,69.15
2024-03-26T18:33:34.719Z,69.24
2024-03-26T18:34:34.705Z,69.15
2024-03-26T18:35:34.736Z,69.56
2024-03-26T18:36:34.690Z,70.06
2024-03-26T18:37:34.679Z,69.15
2024-03-26T18:38:37.662Z,69.04
2024-03-26T18:39:34.663Z,69.76
2024-03-26T18:40:34.647Z,69.04
2024-03-26T18:42:34.661Z,69.76
2024-03-26T18:43:34.634Z,69.86
2024-03-26T18:45:34.600Z,69.86
2024-03-26T18:46:34.583Z,70.06
2024-03-26T18:47:34.612Z,70.27
2024-03-26T18:48:34.759Z,69.89
2024-03-26T18:49:34.551Z,68.87
2024-03-26T18:50:34.536Z,69.89
2024-03-26T18:51:34.528Z,70.20
2024-03-26T18:52:34.518Z,70.61
2024-03-26T18:53:37.770Z,70.92
2024-03-26T18:55:34.493Z,70.92
2024-03-26T18:56:34.472Z,70.92
2024-03-26T18:57:34.470Z,70.81
2024-03-26T18:58:34.457Z,70.71
2024-03-26T18:59:34.440Z,70.92
2024-03-26T19:00:34.440Z,71.01
2024-03-26T19:01:34.421Z,70.61
2024-03-26T19:02:34.416Z,70.64
2024-03-26T19:03:34.410Z,71.25
2024-03-26T19:04:34.431Z,71.77
2024-03-26T19:05:34.379Z,71.97
2024-03-26T19:06:34.371Z,72.38
2024-03-26T19:07:34.379Z,72.17
2024-03-26T19:08:37.348Z,71.25
2024-03-26T19:09:34.339Z,70.13
2024-03-26T19:10:34.329Z,70.64
2024-03-26T19:11:34.321Z,71.56
2024-03-26T19:12:34.303Z,72.92
2024-03-26T19:13:34.302Z,74.35
2024-03-26T19:14:34.278Z,74.76
2024-03-26T19:15:34.435Z,75.48
2024-03-26T19:16:34.269Z,75.07
2024-03-26T19:17:34.253Z,74.76
2024-03-26T19:18:34.246Z,73.94
2024-03-26T19:19:34.232Z,74.87
2024-03-26T19:20:34.214Z,75.07
2024-03-26T19:21:34.208Z,75.79
2024-03-26T19:23:37.199Z,77.05
2024-03-26T19:24:34.180Z,76.43
2024-03-26T19:25:34.171Z,75.93
2024-03-26T19:26:34.195Z,75.82
2024-03-26T19:27:34.152Z,75.52
2024-03-26T19:28:34.139Z,75.31
2024-03-26T19:29:34.119Z,75.52
2024-03-26T19:30:34.134Z,74.90
2024-03-26T19:31:34.102Z,75.01
2024-03-26T19:32:34.092Z,74.60
2024-03-26T19:33:34.098Z,74.69
2024-03-26T19:34:34.080Z,74.69
2024-03-26T19:35:34.060Z,74.49
2024-03-26T19:36:34.055Z,74.90
2024-03-26T19:37:34.212Z,75.21
2024-03-26T19:38:37.032Z,75.62
2024-03-26T19:39:34.022Z,75.52
2024-03-26T19:40:34.007Z,75.52
2024-03-26T19:41:34.002Z,75.31
2024-03-26T19:42:33.992Z,75.21
2024-03-26T19:43:33.975Z,75.31
2024-03-26T19:44:33.963Z,75.52
2024-03-26T19:45:33.966Z,76.03
2024-03-26T19:46:33.948Z,75.62
2024-03-26T19:47:33.944Z,75.82
2024-03-26T19:48:33.960Z,76.03
2024-03-26T19:49:33.916Z,75.82
2024-03-26T19:50:33.902Z,76.23
2024-03-26T19:51:33.889Z,76.13
2024-03-26T19:52:33.906Z,76.23
2024-03-26T19:53:36.983Z,76.23
2024-03-26T19:54:33.876Z,76.57
2024-03-26T19:55:33.861Z,76.57
2024-03-26T19:56:33.836Z,76.68
2024-03-26T19:57:33.839Z,77.19
2024-03-26T19:58:33.818Z,78.11
2024-03-26T19:59:33.821Z,78.42
2024-03-26T20:01:33.801Z,77.50
2024-03-26T20:02:33.775Z,77.39
2024-03-26T20:03:33.763Z,77.80
2024-03-26T20:04:33.781Z,77.50
2024-03-26T20:05:33.746Z,77.29
2024-03-26T20:06:33.739Z,77.09
2024-03-26T20:07:33.730Z,77.60
2024-03-26T20:08:36.721Z,77.60
2024-03-26T20:09:33.700Z,77.60
2024-03-26T20:10:33.690Z,77.39
2024-03-26T20:11:33.680Z,78.11
2024-03-26T20:12:33.853Z,78.66
2024-03-26T20:13:33.652Z,78.25
2024-03-26T20:14:33.652Z,77.33
2024-03-26T20:15:33.637Z,77.53
2024-03-26T20:16:33.622Z,77.64
2024-03-26T20:17:33.638Z,77.84
2024-03-26T20:18:33.610Z,77.60
2024-03-26T20:19:33.605Z,77.80
2024-03-26T20:20:33.588Z,78.11
2024-03-26T20:21:33.598Z,78.11
2024-03-26T20:22:35.808Z,77.50
2024-03-26T20:23:36.563Z,78.11
2024-03-26T20:24:33.550Z,78.42
2024-03-26T20:26:33.533Z,79.27
2024-03-26T20:27:33.523Z,80.19
2024-03-26T20:28:33.535Z,80.09
2024-03-26T20:29:35.449Z,79.48
2024-03-26T20:30:33.480Z,79.89
2024-03-26T20:31:37.957Z,79.27
2024-03-26T20:32:33.461Z,77.84
2024-03-26T20:33:33.454Z,77.64
2024-03-26T20:34:33.435Z,78.56
2024-03-26T20:35:33.426Z,78.19
2024-03-26T20:36:33.413Z,79.21
2024-03-26T20:37:33.401Z,79.21
2024-03-26T20:38:36.393Z,78.80
2024-03-26T20:39:33.453Z,78.80
2024-03-26T20:41:33.361Z,79.82
2024-03-26T20:42:33.355Z,80.54
2024-03-26T20:44:33.383Z,80.13
2024-03-26T20:45:33.323Z,79.21
2024-03-26T20:46:33.303Z,79.21
2024-03-26T20:47:33.312Z,78.70
2024-03-26T20:49:33.271Z,72.44
2024-03-26T20:50:33.266Z,73.13
2024-03-26T20:51:33.263Z,73.13
2024-03-26T20:52:33.254Z,73.03
2024-03-26T20:53:36.317Z,73.54
2024-03-26T20:54:33.224Z,73.23
2024-03-26T20:55:35.610Z,72.82
2024-03-26T20:56:33.205Z,73.54
2024-03-26T20:57:33.199Z,74.36
2024-03-26T20:58:33.202Z,74.46
2024-03-26T20:59:33.172Z,75.07
2024-03-26T21:00:33.165Z,75.28
2024-03-26T21:01:33.156Z,74.87
2024-03-26T21:02:33.148Z,75.28
2024-03-26T21:03:33.137Z,76.31
2024-03-26T21:04:33.159Z,76.51
2024-03-26T21:05:33.111Z,72.61
2024-03-26T21:06:33.159Z,74.56
2024-03-26T21:07:33.086Z,74.77
2024-03-26T21:08:36.104Z,73.74
2024-03-26T21:09:33.081Z,73.64
2024-03-26T21:10:33.077Z,74.05
2024-03-26T21:11:33.049Z,73.64
2024-03-26T21:12:33.034Z,69.54
2024-03-26T21:14:33.017Z,74.43
2024-03-26T21:15:33.059Z,73.91
2024-03-26T21:17:33.000Z,73.71
2024-03-26T21:18:33.040Z,73.81
2024-03-26T21:19:32.982Z,71.77
2024-03-26T21:20:32.964Z,69.92
2024-03-26T21:21:32.967Z,68.28
2024-03-26T21:23:35.932Z,72.28
2024-03-26T21:25:32.890Z,73.30
2024-03-26T21:26:32.881Z,71.77
2024-03-26T21:27:32.886Z,70.84
2024-03-26T21:28:32.861Z,71.77
2024-03-26T21:30:32.848Z,75.04
2024-03-26T21:32:35.396Z,75.89
2024-03-26T21:33:32.830Z,76.92
2024-03-26T21:34:32.830Z,76.81
2024-03-26T21:35:32.787Z,76.31
2024-03-26T21:36:32.780Z,75.38
2024-03-26T21:37:32.767Z,76.20
2024-03-26T21:38:35.758Z,76.44
2024-03-26T21:39:32.764Z,76.34
2024-03-26T21:40:32.733Z,77.16
2024-03-26T21:41:32.725Z,70.50
2024-03-26T21:42:32.713Z,73.27
2024-03-26T21:43:32.702Z,74.15
2024-03-26T21:44:32.698Z,74.46
2024-03-26T21:45:32.717Z,75.38
2024-03-26T21:46:32.674Z,75.59
2024-03-26T21:47:32.698Z,75.79
2024-03-26T21:48:32.645Z,75.69
2024-03-26T21:49:32.635Z,75.69
2024-03-26T21:50:32.627Z,75.28
2024-03-26T21:51:32.622Z,74.87
2024-03-26T21:52:32.612Z,75.28
2024-03-26T21:53:35.620Z,75.48
2024-03-26T21:54:32.600Z,75.79
2024-03-26T21:55:32.574Z,76.31
2024-03-26T21:56:32.588Z,76.10
2024-03-26T21:58:32.810Z,74.60
2024-03-26T22:00:32.518Z,72.72
2024-03-26T22:01:32.511Z,71.80
2024-03-26T22:03:32.521Z,73.03
2024-03-26T22:04:32.480Z,73.23
2024-03-26T22:06:32.459Z,70.57
2024-03-26T22:08:35.443Z,72.72
2024-03-26T22:09:32.458Z,73.85
2024-03-26T22:10:32.419Z,74.97
2024-03-26T22:11:32.413Z,77.84
2024-03-26T22:13:32.390Z,78.70
2024-03-26T22:14:34.878Z,78.70
2024-03-26T22:16:32.354Z,79.41
2024-03-26T22:17:32.384Z,79.41
2024-03-26T22:19:32.324Z,79.66
2024-03-26T22:20:32.314Z,79.86
2024-03-26T22:21:32.294Z,79.24
2024-03-26T22:22:32.287Z,79.45
2024-03-26T22:23:35.277Z,79.35
2024-03-26T22:24:32.277Z,79.24
2024-03-26T22:25:32.295Z,79.24
2024-03-26T22:26:32.259Z,79.55
2024-03-26T22:27:32.256Z,79.66
2024-03-26T22:28:32.364Z,79.86
2024-03-26T22:29:32.239Z,79.75
2024-03-26T22:30:32.204Z,80.07
2024-03-26T23:23:45.026Z,84.80
